sensor_id;sensor_type;location;lat;lon;timestamp;pressure;altitude;pressure_sealevel;temperature;humidity
13968;BME280;39536;52.198;9.920;2023-05-24T00:01:32;101306.75;;;8.06;100.00
13968;BME280;39536;52.198;9.920;2023-05-24T00:03:59;101311.09;;;8.06;100.00
13968;BME280;39536;52.198;9.920;2023-05-24T00:06:26;101311.03;;;8.14;100.00
13968;BME280;39536;52.198;9.920;2023-05-24T00:08:53;101312.00;;;8.00;100.00
13968;BME280;39536;52.198;9.920;2023-05-24T00:11:21;101307.69;;;8.04;100.00
13968;BME280;39536;52.198;9.920;2023-05-24T00:13:48;101307.59;;;8.13;100.00
13968;BME280;39536;52.198;9.920;2023-05-24T00:16:14;101305.88;;;8.09;100.00
13968;BME280;39536;52.198;9.920;2023-05-24T00:18:41;101305.09;;;8.02;100.00
13968;BME280;39536;52.198;9.920;2023-05-24T00:21:11;101305.97;;;8.00;100.00
13968;BME280;39536;52.198;9.920;2023-05-24T00:23:38;101305.88;;;8.09;100.00
13968;BME280;39536;52.198;9.920;2023-05-24T00:26:04;101304.28;;;7.94;100.00
13968;BME280;39536;52.198;9.920;2023-05-24T00:28:32;101309.31;;;8.11;100.00
13968;BME280;39536;52.198;9.920;2023-05-24T00:31:00;101304.91;;;8.21;100.00
13968;BME280;39536;52.198;9.920;2023-05-24T00:33:27;101304.25;;;7.99;100.00
13968;BME280;39536;52.198;9.920;2023-05-24T00:35:54;101305.78;;;8.18;100.00
13968;BME280;39536;52.198;9.920;2023-05-24T00:38:21;101298.72;;;8.31;100.00
13968;BME280;39536;52.198;9.920;2023-05-24T00:40:48;101299.81;;;8.13;100.00
13968;BME280;39536;52.198;9.920;2023-05-24T00:43:14;101285.84;;;8.22;100.00
13968;BME280;39536;52.198;9.920;2023-05-24T00:45:42;101287.53;;;8.27;100.00
13968;BME280;39536;52.198;9.920;2023-05-24T00:48:09;101291.84;;;8.27;100.00
13968;BME280;39536;52.198;9.920;2023-05-24T00:50:37;101286.84;;;8.08;100.00
13968;BME280;39536;52.198;9.920;2023-05-24T00:53:05;101290.31;;;8.10;100.00
13968;BME280;39536;52.198;9.920;2023-05-24T00:55:33;101286.00;;;8.06;100.00
13968;BME280;39536;52.198;9.920;2023-05-24T00:58:01;101292.13;;;8.04;100.00
13968;BME280;39536;52.198;9.920;2023-05-24T01:00:28;101290.25;;;8.17;100.00
13968;BME280;39536;52.198;9.920;2023-05-24T01:02:57;101290.28;;;8.14;100.00
13968;BME280;39536;52.198;9.920;2023-05-24T01:05:25;101284.13;;;8.21;100.00
13968;BME280;39536;52.198;9.920;2023-05-24T01:07:59;101288.59;;;8.08;100.00
13968;BME280;39536;52.198;9.920;2023-05-24T01:10:33;101286.00;;;8.06;100.00
13968;BME280;39536;52.198;9.920;2023-05-24T01:13:11;101280.75;;;8.14;100.00
13968;BME280;39536;52.198;9.920;2023-05-24T01:15:45;101276.44;;;8.12;100.00
13968;BME280;39536;52.198;9.920;2023-05-24T01:18:23;101283.41;;;8.06;100.00
13968;BME280;39536;52.198;9.920;2023-05-24T01:21:00;101273.84;;;8.12;100.00
13968;BME280;39536;52.198;9.920;2023-05-24T01:23:40;101276.50;;;8.07;100.00
13968;BME280;39536;52.198;9.920;2023-05-24T01:26:22;101276.41;;;8.15;100.00
13968;BME280;39536;52.198;9.920;2023-05-24T01:28:54;101271.13;;;8.24;100.00
13968;BME280;39536;52.198;9.920;2023-05-24T01:31:22;101259.19;;;8.06;100.00
13968;BME280;39536;52.198;9.920;2023-05-24T01:33:49;101272.19;;;8.06;100.00
13968;BME280;39536;52.198;9.920;2023-05-24T01:36:15;101267.72;;;8.20;100.00
13968;BME280;39536;52.198;9.920;2023-05-24T01:38:42;101266.06;;;8.12;100.00
13968;BME280;39536;52.198;9.920;2023-05-24T01:41:19;101266.28;;;7.90;100.00
13968;BME280;39536;52.198;9.920;2023-05-24T01:43:52;101268.16;;;7.79;100.00
13968;BME280;39536;52.198;9.920;2023-05-24T01:46:28;101267.16;;;7.89;100.00
13968;BME280;39536;52.198;9.920;2023-05-24T01:49:08;101272.28;;;7.98;100.00
13968;BME280;39536;52.198;9.920;2023-05-24T01:51:39;101267.13;;;7.92;100.00
13968;BME280;39536;52.198;9.920;2023-05-24T01:54:06;101266.19;;;7.99;100.00
13968;BME280;39536;52.198;9.920;2023-05-24T01:56:34;101266.13;;;8.07;100.00
13968;BME280;39536;52.198;9.920;2023-05-24T01:59:02;101260.13;;;8.00;100.00
13968;BME280;39536;52.198;9.920;2023-05-24T02:01:31;101253.22;;;7.99;100.00
13968;BME280;39536;52.198;9.920;2023-05-24T02:03:58;101248.88;;;8.00;100.00
13968;BME280;39536;52.198;9.920;2023-05-24T02:06:25;101253.28;;;7.93;100.00
13968;BME280;39536;52.198;9.920;2023-05-24T02:08:51;101237.66;;;7.99;100.00
13968;BME280;39536;52.198;9.920;2023-05-24T02:11:18;101240.22;;;8.02;100.00
13968;BME280;39536;52.198;9.920;2023-05-24T02:13:45;101235.84;;;8.06;100.00
13968;BME280;39536;52.198;9.920;2023-05-24T02:16:11;101238.44;;;8.07;100.00
13968;BME280;39536;52.198;9.920;2023-05-24T02:18:39;101236.72;;;8.08;100.00
13968;BME280;39536;52.198;9.920;2023-05-24T02:21:09;101234.16;;;8.05;100.00
13968;BME280;39536;52.198;9.920;2023-05-24T02:23:36;101225.56;;;7.98;100.00
13968;BME280;39536;52.198;9.920;2023-05-24T02:26:02;101227.25;;;8.02;100.00
13968;BME280;39536;52.198;9.920;2023-05-24T02:28:29;101227.25;;;8.02;100.00
13968;BME280;39536;52.198;9.920;2023-05-24T02:30:56;101226.59;;;7.83;100.00
13968;BME280;39536;52.198;9.920;2023-05-24T02:33:23;101213.63;;;7.85;100.00
13968;BME280;39536;52.198;9.920;2023-05-24T02:35:51;101221.34;;;7.90;100.00
13968;BME280;39536;52.198;9.920;2023-05-24T02:38:19;101223.94;;;7.88;100.00
13968;BME280;39536;52.198;9.920;2023-05-24T02:40:46;101219.56;;;7.93;100.00
13968;BME280;39536;52.198;9.920;2023-05-24T02:43:13;101221.41;;;7.83;100.00
13968;BME280;39536;52.198;9.920;2023-05-24T02:45:39;101212.75;;;7.83;100.00
13968;BME280;39536;52.198;9.920;2023-05-24T02:48:06;101215.31;;;7.86;100.00
13968;BME280;39536;52.198;9.920;2023-05-24T02:50:32;101213.66;;;7.80;100.00
13968;BME280;39536;52.198;9.920;2023-05-24T02:53:00;101218.03;;;7.72;100.00
13968;BME280;39536;52.198;9.920;2023-05-24T02:55:27;101218.06;;;7.71;100.00
13968;BME280;39536;52.198;9.920;2023-05-24T02:57:54;101220.78;;;7.58;100.00
13968;BME280;39536;52.198;9.920;2023-05-24T03:00:21;101222.53;;;7.53;100.00
13968;BME280;39536;52.198;9.920;2023-05-24T03:02:47;101218.19;;;7.58;100.00
13968;BME280;39536;52.198;9.920;2023-05-24T03:05:15;101227.59;;;7.70;100.00
13968;BME280;39536;52.198;9.920;2023-05-24T03:07:42;101224.91;;;7.78;100.00
13968;BME280;39536;52.198;9.920;2023-05-24T03:10:10;101235.47;;;7.56;100.00
13968;BME280;39536;52.198;9.920;2023-05-24T03:12:36;101234.50;;;7.73;100.00
13968;BME280;39536;52.198;9.920;2023-05-24T03:15:04;101223.13;;;7.83;100.00
13968;BME280;39536;52.198;9.920;2023-05-24T03:17:31;101238.72;;;7.80;100.00
13968;BME280;39536;52.198;9.920;2023-05-24T03:19:57;101232.78;;;7.69;100.00
13968;BME280;39536;52.198;9.920;2023-05-24T03:22:24;101227.69;;;7.59;100.00
13968;BME280;39536;52.198;9.920;2023-05-24T03:24:50;101224.97;;;7.72;100.00
13968;BME280;39536;52.198;9.920;2023-05-24T03:27:18;101231.88;;;7.74;100.00
13968;BME280;39536;52.198;9.920;2023-05-24T03:29:45;101227.59;;;7.70;100.00
13968;BME280;39536;52.198;9.920;2023-05-24T03:32:12;101236.25;;;7.68;100.00
13968;BME280;39536;52.198;9.920;2023-05-24T03:34:38;101229.44;;;7.56;100.00
13968;BME280;39536;52.198;9.920;2023-05-24T03:37:05;101230.22;;;7.67;100.00
13968;BME280;39536;52.198;9.920;2023-05-24T03:39:31;101237.91;;;7.75;100.00
13968;BME280;39536;52.198;9.920;2023-05-24T03:41:58;101236.25;;;7.68;100.00
13968;BME280;39536;52.198;9.920;2023-05-24T03:44:26;101240.63;;;7.64;100.00
13968;BME280;39536;52.198;9.920;2023-05-24T03:46:52;101240.53;;;7.72;100.00
13968;BME280;39536;52.198;9.920;2023-05-24T03:49:19;101242.25;;;7.76;100.00
13968;BME280;39536;52.198;9.920;2023-05-24T03:51:46;101238.81;;;7.71;100.00
13968;BME280;39536;52.198;9.920;2023-05-24T03:54:12;101243.88;;;7.81;100.00
13968;BME280;39536;52.198;9.920;2023-05-24T03:56:39;101244.78;;;7.80;100.00
13968;BME280;39536;52.198;9.920;2023-05-24T03:59:05;101242.22;;;7.74;100.00
13968;BME280;39536;52.198;9.920;2023-05-24T04:01:33;101245.63;;;7.82;100.00
13968;BME280;39536;52.198;9.920;2023-05-24T04:04:01;101249.94;;;7.83;100.00
13968;BME280;39536;52.198;9.920;2023-05-24T04:06:27;101244.63;;;7.94;100.00
13968;BME280;39536;52.198;9.920;2023-05-24T04:08:54;101244.63;;;7.94;100.00
13968;BME280;39536;52.198;9.920;2023-05-24T04:11:21;101245.34;;;8.10;100.00
13968;BME280;39536;52.198;9.920;2023-05-24T04:13:48;101246.09;;;8.18;100.00
13968;BME280;39536;52.198;9.920;2023-05-24T04:16:15;101247.78;;;8.24;100.00
13968;BME280;39536;52.198;9.920;2023-05-24T04:18:44;101245.22;;;8.21;100.00
13968;BME280;39536;52.198;9.920;2023-05-24T04:21:10;101239.88;;;8.31;100.00
13968;BME280;39536;52.198;9.920;2023-05-24T04:23:37;101244.34;;;8.20;100.00
13968;BME280;39536;52.198;9.920;2023-05-24T04:26:04;101241.91;;;8.08;100.00
13968;BME280;39536;52.198;9.920;2023-05-24T04:28:31;101248.72;;;8.15;100.00
13968;BME280;39536;52.198;9.920;2023-05-24T04:30:58;101249.53;;;8.20;100.00
13968;BME280;39536;52.198;9.920;2023-05-24T04:33:25;101246.19;;;8.10;100.00
13968;BME280;39536;52.198;9.920;2023-05-24T04:35:53;101243.47;;;8.21;100.00
13968;BME280;39536;52.198;9.920;2023-05-24T04:38:20;101243.41;;;8.27;100.00
13968;BME280;39536;52.198;9.920;2023-05-24T04:40:47;101243.31;;;8.33;100.00
13968;BME280;39536;52.198;9.920;2023-05-24T04:43:13;101243.31;;;8.38;100.00
13968;BME280;39536;52.198;9.920;2023-05-24T04:45:40;101249.34;;;8.40;100.00
13968;BME280;39536;52.198;9.920;2023-05-24T04:48:07;101239.84;;;8.34;100.00
13968;BME280;39536;52.198;9.920;2023-05-24T04:50:33;101248.38;;;8.49;100.00
13968;BME280;39536;52.198;9.920;2023-05-24T04:53:03;101243.13;;;8.52;100.00
13968;BME280;39536;52.198;9.920;2023-05-24T04:55:29;101242.09;;;8.65;100.00
13968;BME280;39536;52.198;9.920;2023-05-24T04:57:56;101252.59;;;8.56;100.00
13968;BME280;39536;52.198;9.920;2023-05-24T05:00:23;101252.63;;;8.54;100.00
13968;BME280;39536;52.198;9.920;2023-05-24T05:02:49;101253.22;;;8.76;100.00
13968;BME280;39536;52.198;9.920;2023-05-24T05:05:16;101254.09;;;8.74;100.00
13968;BME280;39536;52.198;9.920;2023-05-24T05:07:43;101251.25;;;8.91;100.00
13968;BME280;39536;52.198;9.920;2023-05-24T05:10:11;101258.97;;;8.98;100.00
13968;BME280;39536;52.198;9.920;2023-05-24T05:12:37;101249.66;;;8.82;100.00
13968;BME280;39536;52.198;9.920;2023-05-24T05:15:05;101252.06;;;8.96;100.00
13968;BME280;39536;52.198;9.920;2023-05-24T05:17:31;101252.81;;;9.04;100.00
13968;BME280;39536;52.198;9.920;2023-05-24T05:19:58;101249.00;;;9.27;100.00
13968;BME280;39536;52.198;9.920;2023-05-24T05:22:25;101244.59;;;9.32;100.00
13968;BME280;39536;52.198;9.920;2023-05-24T05:24:51;101245.47;;;9.31;100.00
13968;BME280;39536;52.198;9.920;2023-05-24T05:27:19;101252.59;;;9.19;100.00
13968;BME280;39536;52.198;9.920;2023-05-24T05:29:46;101247.34;;;9.22;100.00
13968;BME280;39536;52.198;9.920;2023-05-24T05:32:12;101255.00;;;9.30;100.00
13968;BME280;39536;52.198;9.920;2023-05-24T05:34:39;101248.91;;;9.31;100.00
13968;BME280;39536;52.198;9.920;2023-05-24T05:37:06;101256.00;;;9.21;100.00
13968;BME280;39536;52.198;9.920;2023-05-24T05:39:32;101253.06;;;9.44;100.00
13968;BME280;39536;52.198;9.920;2023-05-24T05:41:59;101243.72;;;9.82;100.00
13968;BME280;39536;52.198;9.920;2023-05-24T05:44:27;101240.56;;;9.66;100.00
13968;BME280;39536;52.198;9.920;2023-05-24T05:46:55;101242.47;;;9.57;100.00
13968;BME280;39536;52.198;9.920;2023-05-24T05:49:21;101237.19;;;9.60;100.00
13968;BME280;39536;52.198;9.920;2023-05-24T05:51:48;101250.00;;;9.72;100.00
13968;BME280;39536;52.198;9.920;2023-05-24T05:54:14;101253.44;;;9.73;100.00
13968;BME280;39536;52.198;9.920;2023-05-24T05:56:43;101247.22;;;9.81;100.00
13968;BME280;39536;52.198;9.920;2023-05-24T05:59:12;101248.78;;;9.90;100.00
13968;BME280;39536;52.198;9.920;2023-05-24T06:01:41;101247.75;;;9.99;100.00
13968;BME280;39536;52.198;9.920;2023-05-24T06:04:09;101253.81;;;10.01;100.00
13968;BME280;39536;52.198;9.920;2023-05-24T06:06:36;101253.75;;;10.04;100.00
13968;BME280;39536;52.198;9.920;2023-05-24T06:09:03;101256.06;;;10.19;100.00
13968;BME280;39536;52.198;9.920;2023-05-24T06:11:30;101264.59;;;10.29;100.00
13968;BME280;39536;52.198;9.920;2023-05-24T06:13:56;101254.84;;;10.38;100.00
13968;BME280;39536;52.198;9.920;2023-05-24T06:16:23;101246.16;;;10.38;100.00
13968;BME280;39536;52.198;9.920;2023-05-24T06:18:51;101260.16;;;10.32;100.00
13968;BME280;39536;52.198;9.920;2023-05-24T06:21:17;101254.66;;;10.48;100.00
13968;BME280;39536;52.198;9.920;2023-05-24T06:23:44;101251.97;;;10.51;100.00
13968;BME280;39536;52.198;9.920;2023-05-24T06:26:11;101259.06;;;10.44;100.00
13968;BME280;39536;52.198;9.920;2023-05-24T06:28:37;101261.44;;;10.55;100.00
13968;BME280;39536;52.198;9.920;2023-05-24T06:31:04;101258.50;;;10.70;100.00
13968;BME280;39536;52.198;9.920;2023-05-24T06:33:31;101249.25;;;10.57;100.00
13968;BME280;39536;52.198;9.920;2023-05-24T06:35:59;101260.53;;;10.57;100.00
13968;BME280;39536;52.198;9.920;2023-05-24T06:38:26;101263.84;;;10.66;100.00
13968;BME280;39536;52.198;9.920;2023-05-24T06:40:53;101258.44;;;10.75;100.00
13968;BME280;39536;52.198;9.920;2023-05-24T06:43:20;101268.09;;;10.68;100.00
13968;BME280;39536;52.198;9.920;2023-05-24T06:45:46;101255.00;;;10.73;100.00
13968;BME280;39536;52.198;9.920;2023-05-24T06:48:13;101256.75;;;10.71;100.00
13968;BME280;39536;52.198;9.920;2023-05-24T06:50:40;101253.88;;;10.84;100.00
13968;BME280;39536;52.198;9.920;2023-05-24T06:53:08;101263.97;;;10.98;100.00
13968;BME280;39536;52.198;9.920;2023-05-24T06:55:34;101267.69;;;10.86;100.00
13968;BME280;39536;52.198;9.920;2023-05-24T06:58:01;101272.97;;;10.83;100.00
13968;BME280;39536;52.198;9.920;2023-05-24T07:00:28;101284.75;;;11.03;100.00
13968;BME280;39536;52.198;9.920;2023-05-24T07:02:54;101287.72;;;11.23;100.00
13968;BME280;39536;52.198;9.920;2023-05-24T07:05:22;101283.34;;;11.25;100.00
13968;BME280;39536;52.198;9.920;2023-05-24T07:07:48;101286.94;;;11.20;100.00
13968;BME280;39536;52.198;9.920;2023-05-24T07:10:16;101285.31;;;11.16;100.00
13968;BME280;39536;52.198;9.920;2023-05-24T07:12:43;101290.97;;;11.35;100.00
13968;BME280;39536;52.198;9.920;2023-05-24T07:15:10;101280.75;;;11.25;100.00
13968;BME280;39536;52.198;9.920;2023-05-24T07:17:37;101285.53;;;11.44;100.00
13968;BME280;39536;52.198;9.920;2023-05-24T07:20:04;101303.72;;;11.09;100.00
13968;BME280;39536;52.198;9.920;2023-05-24T07:22:34;101283.66;;;11.12;100.00
13968;BME280;39536;52.198;9.920;2023-05-24T07:25:01;101302.03;;;11.07;100.00
13968;BME280;39536;52.198;9.920;2023-05-24T07:27:30;101286.19;;;11.15;100.00
13968;BME280;39536;52.198;9.920;2023-05-24T07:29:56;101289.69;;;11.14;100.00
13968;BME280;39536;52.198;9.920;2023-05-24T07:32:23;101291.09;;;11.28;100.00
13968;BME280;39536;52.198;9.920;2023-05-24T07:34:49;101308.56;;;11.62;100.00
13968;BME280;39536;52.198;9.920;2023-05-24T07:37:16;101298.94;;;11.28;100.00
13968;BME280;39536;52.198;9.920;2023-05-24T07:39:43;101311.41;;;11.16;100.00
13968;BME280;39536;52.198;9.920;2023-05-24T07:42:10;101311.75;;;10.99;100.00
13968;BME280;39536;52.198;9.920;2023-05-24T07:44:37;101303.94;;;10.99;100.00
13968;BME280;39536;52.198;9.920;2023-05-24T07:47:04;101303.34;;;10.86;100.00
13968;BME280;39536;52.198;9.920;2023-05-24T07:49:31;101310.03;;;10.98;100.00
13968;BME280;39536;52.198;9.920;2023-05-24T07:51:58;101310.59;;;11.12;100.00
13968;BME280;39536;52.198;9.920;2023-05-24T07:54:24;101301.75;;;11.19;100.00
13968;BME280;39536;52.198;9.920;2023-05-24T07:56:51;101302.47;;;11.26;100.00
13968;BME280;39536;52.198;9.920;2023-05-24T07:59:18;101310.44;;;11.20;100.00
13968;BME280;39536;52.198;9.920;2023-05-24T08:01:46;101315.97;;;11.43;100.00
13968;BME280;39536;52.198;9.920;2023-05-24T08:04:12;101305.97;;;11.61;100.00
13968;BME280;39536;52.198;9.920;2023-05-24T08:06:39;101311.81;;;11.72;100.00
13968;BME280;39536;52.198;9.920;2023-05-24T08:09:06;101314.03;;;11.51;100.00
13968;BME280;39536;52.198;9.920;2023-05-24T08:11:33;101308.25;;;11.39;100.00
13968;BME280;39536;52.198;9.920;2023-05-24T08:13:59;101317.25;;;11.61;100.00
13968;BME280;39536;52.198;9.920;2023-05-24T08:16:26;101318.09;;;11.63;100.00
13968;BME280;39536;52.198;9.920;2023-05-24T08:18:54;101322.25;;;11.70;100.00
13968;BME280;39536;52.198;9.920;2023-05-24T08:21:21;101315.41;;;11.66;100.00
13968;BME280;39536;52.198;9.920;2023-05-24T08:23:47;101314.03;;;11.51;100.00
13968;BME280;39536;52.198;9.920;2023-05-24T08:26:14;101325.38;;;11.49;100.00
13968;BME280;39536;52.198;9.920;2023-05-24T08:28:43;101328.06;;;11.46;100.00
13968;BME280;39536;52.198;9.920;2023-05-24T08:31:10;101319.53;;;11.39;100.00
13968;BME280;39536;52.198;9.920;2023-05-24T08:33:36;101324.88;;;11.33;100.00
13968;BME280;39536;52.198;9.920;2023-05-24T08:36:04;101330.53;;;11.52;100.00
13968;BME280;39536;52.198;9.920;2023-05-24T08:38:31;101321.09;;;11.46;100.00
13968;BME280;39536;52.198;9.920;2023-05-24T08:40:58;101323.88;;;11.40;100.00
13968;BME280;39536;52.198;9.920;2023-05-24T08:43:25;101329.03;;;11.42;100.00
13968;BME280;39536;52.198;9.920;2023-05-24T08:45:56;101328.56;;;11.24;100.00
13968;BME280;39536;52.198;9.920;2023-05-24T08:48:24;101337.88;;;10.96;100.00
13968;BME280;39536;52.198;9.920;2023-05-24T08:50:51;101346.44;;;10.59;100.00
13968;BME280;39536;52.198;9.920;2023-05-24T08:53:19;101339.53;;;10.58;100.00
13968;BME280;39536;52.198;9.920;2023-05-24T08:55:48;101356.97;;;10.53;100.00
13968;BME280;39536;52.198;9.920;2023-05-24T08:58:17;101347.94;;;10.72;100.00
13968;BME280;39536;52.198;9.920;2023-05-24T09:00:44;101346.16;;;10.74;100.00
13968;BME280;39536;52.198;9.920;2023-05-24T09:03:11;101369.03;;;10.58;100.00
13968;BME280;39536;52.198;9.920;2023-05-24T09:05:39;101364.91;;;10.48;100.00
13968;BME280;39536;52.198;9.920;2023-05-24T09:08:07;101370.22;;;10.44;100.00
13968;BME280;39536;52.198;9.920;2023-05-24T09:10:36;101369.69;;;10.22;100.00
13968;BME280;39536;52.198;9.920;2023-05-24T09:13:04;101372.09;;;10.34;100.00
13968;BME280;39536;52.198;9.920;2023-05-24T09:15:32;101370.28;;;10.40;100.00
13968;BME280;39536;52.198;9.920;2023-05-24T09:17:58;101375.50;;;10.39;100.00
13968;BME280;39536;52.198;9.920;2023-05-24T09:20:26;101374.53;;;10.45;100.00
13968;BME280;39536;52.198;9.920;2023-05-24T09:22:52;101373.38;;;10.59;100.00
13968;BME280;39536;52.198;9.920;2023-05-24T09:25:19;101375.38;;;10.45;100.00
13968;BME280;39536;52.198;9.920;2023-05-24T09:27:49;101377.94;;;10.48;100.00
13968;BME280;39536;52.198;9.920;2023-05-24T09:30:16;101371.06;;;10.44;100.00
13968;BME280;39536;52.198;9.920;2023-05-24T09:32:53;101371.81;;;10.49;100.00
13968;BME280;39536;52.198;9.920;2023-05-24T09:35:21;101374.75;;;10.32;100.00
13968;BME280;39536;52.198;9.920;2023-05-24T09:37:48;101379.84;;;10.38;100.00
13968;BME280;39536;52.198;9.920;2023-05-24T09:40:17;101370.16;;;10.45;100.00
13968;BME280;39536;52.198;9.920;2023-05-24T09:42:44;101375.28;;;10.50;100.00
13968;BME280;39536;52.198;9.920;2023-05-24T09:45:12;101379.34;;;10.64;100.00
13968;BME280;39536;52.198;9.920;2023-05-24T09:47:40;101378.66;;;10.55;100.00
13968;BME280;39536;52.198;9.920;2023-05-24T09:50:12;101378.56;;;10.61;100.00
13968;BME280;39536;52.198;9.920;2023-05-24T09:52:39;101374.06;;;10.69;100.00
13968;BME280;39536;52.198;9.920;2023-05-24T09:55:12;101372.50;;;10.59;100.00
13968;BME280;39536;52.198;9.920;2023-05-24T09:57:39;101378.72;;;10.53;100.00
13968;BME280;39536;52.198;9.920;2023-05-24T10:00:07;101370.06;;;10.51;100.00
13968;BME280;39536;52.198;9.920;2023-05-24T10:02:43;101368.72;;;10.75;100.00
13968;BME280;39536;52.198;9.920;2023-05-24T10:05:11;101370.97;;;10.94;100.00
13968;BME280;39536;52.198;9.920;2023-05-24T10:07:39;101366.16;;;11.14;100.00
13968;BME280;39536;52.198;9.920;2023-05-24T10:10:07;101368.19;;;11.01;100.00
13968;BME280;39536;52.198;9.920;2023-05-24T10:12:35;101368.38;;;11.34;100.00
13968;BME280;39536;52.198;9.920;2023-05-24T10:15:08;101367.91;;;11.52;100.00
13968;BME280;39536;52.198;9.920;2023-05-24T10:17:36;101362.38;;;11.29;100.00
13968;BME280;39536;52.198;9.920;2023-05-24T10:20:05;101368.81;;;11.13;100.00
13968;BME280;39536;52.198;9.920;2023-05-24T10:22:36;101373.16;;;11.14;100.00
13968;BME280;39536;52.198;9.920;2023-05-24T10:25:07;101378.25;;;11.18;100.00
13968;BME280;39536;52.198;9.920;2023-05-24T10:27:37;101374.38;;;11.36;100.00
13968;BME280;39536;52.198;9.920;2023-05-24T10:30:09;101380.72;;;11.24;100.00
13968;BME280;39536;52.198;9.920;2023-05-24T10:32:38;101379.44;;;11.44;100.00
13968;BME280;39536;52.198;9.920;2023-05-24T10:35:07;101376.44;;;11.22;100.00
13968;BME280;39536;52.198;9.920;2023-05-24T10:37:36;101375.81;;;11.49;100.00
13968;BME280;39536;52.198;9.920;2023-05-24T10:40:04;101379.31;;;11.50;100.00
13968;BME280;39536;52.198;9.920;2023-05-24T10:42:34;101380.22;;;11.47;100.00
13968;BME280;39536;52.198;9.920;2023-05-24T10:45:28;101384.53;;;11.48;100.00
13968;BME280;39536;52.198;9.920;2023-05-24T10:47:56;101385.47;;;11.46;100.00
13968;BME280;39536;52.198;9.920;2023-05-24T10:50:23;101380.44;;;11.37;100.00
13968;BME280;39536;52.198;9.920;2023-05-24T10:52:50;101380.31;;;11.43;100.00
13968;BME280;39536;52.198;9.920;2023-05-24T10:55:18;101376.06;;;11.40;100.00
13968;BME280;39536;52.198;9.920;2023-05-24T10:57:45;101370.97;;;11.32;100.00
13968;BME280;39536;52.198;9.920;2023-05-24T11:00:27;101385.66;;;11.37;100.00
13968;BME280;39536;52.198;9.920;2023-05-24T11:03:01;101386.84;;;11.23;100.00
13968;BME280;39536;52.198;9.920;2023-05-24T11:05:33;101394.06;;;11.12;100.00
13968;BME280;39536;52.198;9.920;2023-05-24T11:08:00;101391.28;;;11.18;100.00
13968;BME280;39536;52.198;9.920;2023-05-24T11:10:31;101390.47;;;11.16;100.00
13968;BME280;39536;52.198;9.920;2023-05-24T11:12:59;101391.81;;;10.94;100.00
13968;BME280;39536;52.198;9.920;2023-05-24T11:15:26;101396.97;;;10.95;100.00
13968;BME280;39536;52.198;9.920;2023-05-24T11:18:12;101400.38;;;10.99;100.00
13968;BME280;39536;52.198;9.920;2023-05-24T11:20:42;101404.47;;;11.12;100.00
13968;BME280;39536;52.198;9.920;2023-05-24T11:23:09;101407.09;;;11.10;100.00
13968;BME280;39536;52.198;9.920;2023-05-24T11:25:36;101404.09;;;11.29;100.00
13968;BME280;39536;52.198;9.920;2023-05-24T11:28:05;101409.75;;;11.09;100.00
13968;BME280;39536;52.198;9.920;2023-05-24T11:30:32;101408.81;;;11.12;100.00
13968;BME280;39536;52.198;9.920;2023-05-24T11:32:59;101404.91;;;11.32;100.00
13968;BME280;39536;52.198;9.920;2023-05-24T11:35:26;101405.91;;;11.64;100.00
13968;BME280;39536;52.198;9.920;2023-05-24T11:37:55;101405.13;;;11.62;100.00
13968;BME280;39536;52.198;9.920;2023-05-24T11:40:22;101403.81;;;11.80;100.00
13968;BME280;39536;52.198;9.920;2023-05-24T11:42:49;101400.13;;;11.90;100.00
13968;BME280;39536;52.198;9.920;2023-05-24T11:45:16;101398.41;;;11.89;100.00
13968;BME280;39536;52.198;9.920;2023-05-24T11:47:43;101392.72;;;11.70;100.00
13968;BME280;39536;52.198;9.920;2023-05-24T11:50:13;101393.28;;;11.83;100.00
13968;BME280;39536;52.198;9.920;2023-05-24T11:52:40;101390.16;;;12.06;100.00
13968;BME280;39536;52.198;9.920;2023-05-24T11:55:10;101393.88;;;12.30;100.00
13968;BME280;39536;52.198;9.920;2023-05-24T11:57:41;101396.66;;;11.90;100.00
13968;BME280;39536;52.198;9.920;2023-05-24T12:00:10;101397.16;;;12.06;100.00
13968;BME280;39536;52.198;9.920;2023-05-24T12:02:41;101389.94;;;12.15;100.00
13968;BME280;39536;52.198;9.920;2023-05-24T12:05:08;101394.47;;;12.09;100.00
13968;BME280;39536;52.198;9.920;2023-05-24T12:07:38;101402.69;;;11.93;100.00
13968;BME280;39536;52.198;9.920;2023-05-24T12:10:05;101393.59;;;12.08;100.00
13968;BME280;39536;52.198;9.920;2023-05-24T12:12:33;101398.94;;;12.04;100.00
13968;BME280;39536;52.198;9.920;2023-05-24T12:15:00;101398.81;;;12.08;100.00
13968;BME280;39536;52.198;9.920;2023-05-24T12:17:27;101402.09;;;12.16;100.00
13968;BME280;39536;52.198;9.920;2023-05-24T12:19:53;101393.28;;;12.20;100.00
13968;BME280;39536;52.198;9.920;2023-05-24T12:22:25;101387.81;;;12.30;100.00
13968;BME280;39536;52.198;9.920;2023-05-24T12:24:53;101408.88;;;12.23;100.00
13968;BME280;39536;52.198;9.920;2023-05-24T12:27:24;101389.63;;;12.28;100.00
13968;BME280;39536;52.198;9.920;2023-05-24T12:29:52;101395.00;;;12.54;100.00
13968;BME280;39536;52.198;9.920;2023-05-24T12:32:19;101393.22;;;12.56;100.00
13968;BME280;39536;52.198;9.920;2023-05-24T12:34:48;101396.69;;;12.57;100.00
13968;BME280;39536;52.198;9.920;2023-05-24T12:37:16;101388.34;;;12.42;100.00
13968;BME280;39536;52.198;9.920;2023-05-24T12:39:42;101400.00;;;12.31;100.00
13968;BME280;39536;52.198;9.920;2023-05-24T12:42:09;101395.72;;;12.27;100.00
13968;BME280;39536;52.198;9.920;2023-05-24T12:44:37;101398.81;;;12.42;100.00
13968;BME280;39536;52.198;9.920;2023-05-24T12:47:06;101391.78;;;12.44;100.00
13968;BME280;39536;52.198;9.920;2023-05-24T12:49:33;101384.09;;;12.38;100.00